Time;durP1;ratioP1;P1;durP2;ratioP2;P2;SDS_P1;SDS_P2;PMS_P1;PMS_P2;Temp;Humidity;BMP_temperature;BMP_pressure;BME280_temperature;BME280_humidity;BME280_pressure;Samples;Min_cycle;Max_cycle;Signal;HPM_P1;HPM_P2
2023/04/27 00:02:05;;;;;;;20.70;17.52;;;18.50;47.70;;;;;;5073818;28;20264;-81
2023/04/27 00:04:32;;;;;;;21.83;17.13;;;18.50;47.60;;;;;;5073731;28;20233;-81
2023/04/27 00:06:59;;;;;;;22.92;17.60;;;18.50;47.60;;;;;;5073402;28;20225;-82
2023/04/27 00:09:26;;;;;;;24.00;17.80;;;18.40;47.50;;;;;;5073725;28;20199;-82
2023/04/27 00:11:53;;;;;;;21.83;16.92;;;18.40;47.50;;;;;;5074760;28;20206;-82
2023/04/27 00:14:20;;;;;;;19.33;14.77;;;18.40;47.50;;;;;;5089965;28;20202;-82
2023/04/27 00:16:48;;;;;;;19.52;14.32;;;18.40;47.60;;;;;;5073304;28;20264;-82
2023/04/27 00:19:16;;;;;;;24.33;17.08;;;18.40;47.70;;;;;;5089972;28;20202;-82
2023/04/27 00:21:44;;;;;;;19.55;17.08;;;18.40;47.70;;;;;;5072992;28;20587;-82
2023/04/27 00:24:11;;;;;;;19.25;15.82;;;18.40;47.70;;;;;;5073323;28;20656;-82
2023/04/27 00:26:38;;;;;;;20.27;15.60;;;18.30;47.50;;;;;;5056348;28;20203;-82
2023/04/27 00:29:05;;;;;;;19.05;15.55;;;18.30;47.50;;;;;;5072920;28;20213;-82
2023/04/27 00:31:32;;;;;;;19.00;15.40;;;18.30;47.50;;;;;;5072976;28;20240;-82
2023/04/27 00:34:00;;;;;;;16.80;14.27;;;18.30;47.50;;;;;;5074564;28;20187;-82
2023/04/27 00:36:28;;;;;;;19.52;16.00;;;18.30;47.40;;;;;;5056290;28;20198;-82
2023/04/27 00:38:55;;;;;;;17.65;14.60;;;18.30;47.70;;;;;;5073026;28;20612;-82
2023/04/27 00:41:24;;;;;;;18.55;14.32;;;18.30;47.50;;;;;;5072929;28;20211;-82
2023/04/27 00:43:51;;;;;;;20.42;15.25;;;18.30;47.50;;;;;;5073223;28;20252;-82
2023/04/27 00:46:18;;;;;;;17.13;14.15;;;18.30;47.70;;;;;;5057877;28;20203;-82
2023/04/27 00:48:46;;;;;;;18.05;15.00;;;18.30;47.70;;;;;;5073460;28;20285;-82
2023/04/27 00:51:13;;;;;;;16.92;14.07;;;18.30;47.70;;;;;;5074225;28;20642;-82
2023/04/27 00:53:41;;;;;;;20.00;15.30;;;18.30;47.80;;;;;;5059618;28;20602;-83
2023/04/27 00:56:09;;;;;;;17.88;13.68;;;18.20;47.70;;;;;;5075301;28;20248;-83
2023/04/27 00:58:36;;;;;;;19.35;14.27;;;18.20;47.70;;;;;;5074052;28;20195;-83
2023/04/27 01:01:04;;;;;;;19.58;14.02;;;18.20;47.60;;;;;;5058284;28;20215;-83
2023/04/27 01:03:31;;;;;;;16.73;13.70;;;18.20;47.60;;;;;;5076180;28;20198;-83
2023/04/27 01:06:00;;;;;;;17.10;14.48;;;18.20;47.70;;;;;;5061025;28;20194;-83
2023/04/27 01:08:28;;;;;;;17.40;14.23;;;18.10;47.60;;;;;;5098250;28;20201;-83
2023/04/27 01:10:57;;;;;;;17.23;13.27;;;18.20;47.70;;;;;;5090158;28;20238;-82
2023/04/27 01:13:24;;;;;;;17.55;13.18;;;18.20;47.80;;;;;;5093335;28;20271;-82
2023/04/27 01:15:51;;;;;;;16.50;13.32;;;18.20;47.70;;;;;;5087382;28;20264;-82
2023/04/27 01:18:18;;;;;;;14.98;12.27;;;18.10;47.70;;;;;;5093347;28;20195;-82
2023/04/27 01:20:45;;;;;;;16.50;13.55;;;18.20;47.80;;;;;;5075587;28;20325;-82
2023/04/27 01:23:15;;;;;;;16.77;13.27;;;18.10;47.70;;;;;;5076483;28;20208;-82
2023/04/27 01:25:42;;;;;;;14.68;12.90;;;18.10;47.80;;;;;;5075334;28;20202;-82
2023/04/27 01:28:10;;;;;;;17.00;13.40;;;18.10;47.80;;;;;;5077091;28;20270;-82
2023/04/27 01:30:37;;;;;;;14.57;12.45;;;18.10;47.80;;;;;;5089966;28;20257;-82
2023/04/27 01:33:04;;;;;;;14.13;12.63;;;18.10;47.80;;;;;;5097330;28;20218;-82
2023/04/27 01:35:31;;;;;;;15.27;12.30;;;18.10;47.90;;;;;;5098375;28;20190;-82
2023/04/27 01:38:00;;;;;;;13.93;11.85;;;18.10;47.80;;;;;;5082000;28;20186;-83
2023/04/27 01:40:28;;;;;;;16.90;12.48;;;18.10;47.80;;;;;;5088207;28;20225;-83
2023/04/27 01:42:55;;;;;;;16.48;13.18;;;18.10;47.90;;;;;;5081906;28;20252;-83
2023/04/27 01:45:23;;;;;;;17.35;13.05;;;18.10;47.90;;;;;;5079337;28;20198;-83
2023/04/27 01:47:51;;;;;;;12.82;11.27;;;18.00;47.90;;;;;;5079519;28;20198;-81
2023/04/27 01:50:20;;;;;;;13.50;12.05;;;18.00;47.90;;;;;;5079998;28;20215;-81
2023/04/27 01:52:47;;;;;;;16.67;12.77;;;18.10;48.00;;;;;;5062903;28;20215;-81
2023/04/27 01:55:14;;;;;;;13.70;11.55;;;18.00;47.90;;;;;;5079480;28;20198;-81
2023/04/27 01:57:43;;;;;;;13.20;11.85;;;18.00;47.80;;;;;;5078059;28;20560;-81
2023/04/27 02:00:12;;;;;;;14.25;11.40;;;18.00;47.90;;;;;;5074987;28;20305;-81
2023/04/27 02:02:49;;;;;;;14.98;12.20;;;18.00;47.90;;;;;;5077047;28;20175;-81
2023/04/27 02:05:16;;;;;;;13.93;11.48;;;18.00;47.90;;;;;;5075911;28;20199;-81
2023/04/27 02:07:43;;;;;;;13.48;11.38;;;18.00;47.80;;;;;;5078389;28;20281;-79
2023/04/27 02:10:10;;;;;;;13.80;11.68;;;18.00;47.90;;;;;;5077817;28;20305;-81
2023/04/27 02:12:38;;;;;;;13.45;10.68;;;17.90;47.90;;;;;;5077865;28;20310;-81
2023/04/27 02:15:09;;;;;;;13.02;10.75;;;18.00;47.90;;;;;;5076529;28;20546;-81
2023/04/27 02:17:37;;;;;;;12.88;10.65;;;18.00;47.90;;;;;;5077752;28;20198;-81
2023/04/27 02:20:05;;;;;;;12.00;10.68;;;17.90;48.00;;;;;;5094862;28;20219;-81
2023/04/27 02:22:32;;;;;;;13.20;11.10;;;17.90;48.00;;;;;;5077900;28;20562;-80
2023/04/27 02:24:59;;;;;;;12.70;10.82;;;17.90;48.00;;;;;;5094271;28;20750;-80
2023/04/27 02:27:27;;;;;;;12.77;9.98;;;17.90;47.90;;;;;;5077847;28;20201;-81
2023/04/27 02:29:54;;;;;;;13.35;10.75;;;17.90;48.10;;;;;;5078085;28;20214;-81
2023/04/27 02:32:24;;;;;;;11.38;10.07;;;17.90;48.10;;;;;;5077976;28;20298;-79
2023/04/27 02:34:51;;;;;;;14.27;11.45;;;17.90;48.20;;;;;;5077604;28;20198;-79
2023/04/27 02:37:18;;;;;;;13.75;10.57;;;17.90;48.30;;;;;;5094562;28;20194;-80
2023/04/27 02:39:46;;;;;;;11.90;10.30;;;17.90;48.30;;;;;;5063786;28;20194;-82
2023/04/27 02:42:15;;;;;;;11.75;10.40;;;17.80;48.20;;;;;;5077556;28;20195;-82
2023/04/27 02:44:42;;;;;;;12.20;10.60;;;17.90;48.40;;;;;;5091286;28;20290;-83
2023/04/27 02:47:10;;;;;;;13.15;10.52;;;17.90;48.40;;;;;;5091213;28;20195;-84
2023/04/27 02:49:38;;;;;;;11.40;10.02;;;17.90;48.40;;;;;;5074917;28;20206;-83
2023/04/27 02:52:05;;;;;;;11.43;10.23;;;17.80;48.40;;;;;;5074069;28;20214;-83
2023/04/27 02:54:32;;;;;;;12.98;10.35;;;17.80;48.20;;;;;;5075145;28;20611;-83
2023/04/27 02:57:00;;;;;;;11.50;10.30;;;17.80;48.40;;;;;;5075119;28;20297;-82
2023/04/27 02:59:27;;;;;;;11.55;10.02;;;17.80;48.40;;;;;;5074100;28;20285;-83
2023/04/27 03:01:54;;;;;;;14.07;10.63;;;17.80;48.40;;;;;;5073895;28;20215;-82
2023/04/27 03:04:21;;;;;;;13.27;10.07;;;17.80;48.40;;;;;;5073988;28;20611;-83
2023/04/27 03:06:50;;;;;;;10.48;9.32;;;17.70;48.20;;;;;;5078527;28;20190;-83
2023/04/27 03:09:17;;;;;;;11.30;9.38;;;17.70;48.40;;;;;;5084182;28;20252;-83
2023/04/27 03:11:44;;;;;;;11.50;10.00;;;17.80;48.20;;;;;;5081096;28;20215;-83
2023/04/27 03:14:12;;;;;;;9.95;8.95;;;17.70;48.20;;;;;;5077941;28;20589;-83
2023/04/27 03:16:39;;;;;;;12.88;10.15;;;17.70;48.20;;;;;;5078079;28;20214;-83
2023/04/27 03:19:06;;;;;;;11.90;10.27;;;17.80;48.40;;;;;;5095344;28;20294;-83
2023/04/27 03:21:33;;;;;;;11.90;9.32;;;17.70;48.40;;;;;;5058257;28;20215;-83
2023/04/27 03:24:01;;;;;;;9.90;8.88;;;17.80;48.40;;;;;;5073225;28;20206;-83
2023/04/27 03:26:28;;;;;;;10.27;9.07;;;17.80;48.30;;;;;;5072931;28;20190;-83
2023/04/27 03:28:55;;;;;;;10.70;9.32;;;17.80;48.30;;;;;;5073164;28;20596;-83
2023/04/27 03:31:23;;;;;;;11.38;9.40;;;17.80;48.10;;;;;;5056623;28;20692;-83
2023/04/27 03:33:50;;;;;;;9.80;8.77;;;17.80;48.20;;;;;;5073413;28;20226;-83
2023/04/27 03:36:17;;;;;;;10.38;9.27;;;17.80;48.20;;;;;;5072975;28;20256;-83
2023/04/27 03:38:44;;;;;;;12.05;10.20;;;17.80;48.40;;;;;;5073270;28;20580;-83
2023/04/27 03:41:12;;;;;;;10.63;9.50;;;17.80;48.40;;;;;;5073102;28;20244;-83
2023/04/27 03:43:39;;;;;;;10.52;8.98;;;17.90;48.50;;;;;;5073839;28;20199;-83
2023/04/27 03:46:06;;;;;;;10.43;9.23;;;17.90;48.30;;;;;;5074961;28;20191;-83
2023/04/27 03:48:33;;;;;;;10.35;8.98;;;17.90;48.10;;;;;;5073279;28;20199;-83
2023/04/27 03:51:00;;;;;;;10.50;8.73;;;18.00;48.10;;;;;;5073049;28;20218;-83
2023/04/27 03:53:27;;;;;;;10.85;8.85;;;18.00;48.00;;;;;;5073790;28;20210;-83
2023/04/27 03:55:54;;;;;;;9.95;8.45;;;18.00;47.90;;;;;;5073871;28;20214;-83
2023/04/27 03:58:23;;;;;;;9.98;8.50;;;18.00;47.80;;;;;;5073384;28;20276;-83
2023/04/27 04:01:29;;;;;;;10.98;8.93;;;18.00;47.70;;;;;;5066892;28;20221;-83
2023/04/27 04:03:56;;;;;;;11.00;8.00;;;18.10;47.90;;;;;;5074671;28;20198;-83
2023/04/27 04:06:23;;;;;;;10.00;8.60;;;18.00;47.60;;;;;;5056522;28;20550;-83
2023/04/27 04:08:50;;;;;;;8.82;7.93;;;18.00;47.70;;;;;;5073187;28;20206;-83
2023/04/27 04:11:18;;;;;;;9.77;8.75;;;18.00;47.80;;;;;;5074204;28;20245;-83
2023/04/27 04:13:46;;;;;;;9.48;8.48;;;18.00;47.70;;;;;;5072963;28;20214;-83
2023/04/27 04:16:13;;;;;;;9.98;8.80;;;18.00;47.70;;;;;;5073118;28;20596;-83
2023/04/27 04:18:40;;;;;;;8.80;7.65;;;18.00;47.80;;;;;;5072983;28;20266;-83
2023/04/27 04:21:09;;;;;;;8.10;7.30;;;18.00;47.80;;;;;;5073259;28;20215;-83
2023/04/27 04:23:37;;;;;;;10.05;8.43;;;18.00;47.90;;;;;;5072888;28;20195;-83
2023/04/27 04:26:04;;;;;;;9.25;7.97;;;18.00;47.90;;;;;;5072866;28;20195;-83
2023/04/27 04:28:34;;;;;;;11.38;7.90;;;18.00;47.80;;;;;;5072673;28;20202;-83
2023/04/27 04:31:04;;;;;;;8.75;7.55;;;18.00;48.00;;;;;;5056094;28;20219;-83
2023/04/27 04:33:31;;;;;;;9.02;8.10;;;18.00;47.80;;;;;;5056679;28;20545;-83
2023/04/27 04:35:58;;;;;;;8.70;7.80;;;18.00;47.90;;;;;;5072549;28;20202;-83
2023/04/27 04:38:25;;;;;;;9.88;8.88;;;18.00;47.80;;;;;;5075383;28;20199;-83
2023/04/27 04:40:53;;;;;;;9.35;7.13;;;18.10;47.90;;;;;;5076383;28;20219;-83
2023/04/27 04:43:20;;;;;;;8.77;7.75;;;18.00;47.70;;;;;;5076403;28;20191;-83
2023/04/27 04:45:48;;;;;;;9.10;7.85;;;18.00;47.70;;;;;;5076587;28;20191;-83
2023/04/27 04:48:16;;;;;;;8.60;7.28;;;18.10;47.80;;;;;;5077110;28;20198;-84
2023/04/27 04:50:43;;;;;;;8.82;7.00;;;18.10;47.80;;;;;;5077053;28;20219;-83
2023/04/27 04:53:10;;;;;;;8.50;7.70;;;18.10;47.80;;;;;;5078039;28;20214;-82
2023/04/27 04:55:37;;;;;;;9.35;7.35;;;18.10;47.80;;;;;;5080143;28;20241;-82
2023/04/27 04:58:07;;;;;;;9.55;7.50;;;18.10;47.80;;;;;;5079503;28;20221;-82
2023/04/27 05:00:34;;;;;;;9.23;7.68;;;18.10;47.80;;;;;;5079057;28;20232;-82
2023/04/27 05:03:01;;;;;;;8.30;7.43;;;18.10;47.80;;;;;;5078764;28;20210;-82
2023/04/27 05:05:30;;;;;;;9.05;7.75;;;18.10;47.90;;;;;;5070164;28;20203;-82
2023/04/27 05:07:57;;;;;;;8.40;7.00;;;18.10;47.70;;;;;;5090131;28;20632;-82
2023/04/27 05:10:24;;;;;;;8.90;7.28;;;18.10;47.90;;;;;;5084248;28;20219;-82
2023/04/27 05:12:50;;;;;;;10.02;7.05;;;18.20;47.80;;;;;;5081283;28;20218;-83
2023/04/27 05:15:18;;;;;;;9.93;7.25;;;18.20;47.90;;;;;;5081221;28;20198;-82
2023/04/27 05:17:45;;;;;;;8.38;7.38;;;18.20;47.70;;;;;;5080854;28;20194;-83
2023/04/27 05:20:12;;;;;;;8.25;7.40;;;18.20;47.90;;;;;;5078565;28;20560;-82
2023/04/27 05:22:40;;;;;;;7.68;6.85;;;18.20;47.70;;;;;;5077287;28;20199;-82
2023/04/27 05:25:08;;;;;;;7.93;6.88;;;18.20;47.50;;;;;;5077481;28;20199;-82
2023/04/27 05:27:35;;;;;;;8.25;6.80;;;18.20;47.50;;;;;;5077724;28;20244;-80
2023/04/27 05:30:03;;;;;;;7.65;6.93;;;18.30;47.50;;;;;;5076880;28;20219;-82
2023/04/27 05:32:30;;;;;;;7.45;6.70;;;18.30;47.50;;;;;;5075809;28;20215;-82
2023/04/27 05:34:57;;;;;;;7.88;7.00;;;18.30;47.60;;;;;;5059453;28;20594;-82
2023/04/27 05:37:24;;;;;;;7.53;6.10;;;18.30;47.40;;;;;;5076191;28;20194;-82
2023/04/27 05:39:55;;;;;;;9.30;7.05;;;18.40;47.30;;;;;;5079509;28;20203;-83
2023/04/27 05:42:23;;;;;;;8.18;7.38;;;18.40;47.20;;;;;;5080230;28;20209;-84
2023/04/27 05:44:50;;;;;;;8.60;6.97;;;18.40;47.20;;;;;;5077281;28;20202;-82
2023/04/27 05:47:17;;;;;;;8.38;7.30;;;18.40;47.20;;;;;;5078308;28;20203;-83
2023/04/27 05:49:44;;;;;;;8.05;7.25;;;18.50;47.40;;;;;;5078328;28;20210;-82
2023/04/27 05:52:11;;;;;;;8.32;6.78;;;18.50;47.10;;;;;;5079338;28;20230;-83
2023/04/27 05:54:38;;;;;;;8.18;7.38;;;18.50;47.10;;;;;;5077561;28;20206;-81
2023/04/27 05:57:06;;;;;;;7.80;7.00;;;18.50;46.80;;;;;;5077052;28;20199;-81
2023/04/27 05:59:33;;;;;;;7.53;6.75;;;18.60;46.90;;;;;;5075949;28;20197;-82
2023/04/27 06:02:00;;;;;;;9.20;6.43;;;18.60;46.60;;;;;;5075785;28;20707;-82
2023/04/27 06:04:28;;;;;;;7.93;7.13;;;18.60;47.20;;;;;;5077198;28;20558;-82
2023/04/27 06:06:55;;;;;;;8.20;7.40;;;18.60;46.40;;;;;;5076027;28;20198;-82
2023/04/27 06:09:22;;;;;;;7.53;6.72;;;18.70;46.90;;;;;;5074891;28;20657;-82
2023/04/27 06:11:49;;;;;;;7.78;6.97;;;18.80;46.40;;;;;;5074664;28;20693;-82
2023/04/27 06:14:17;;;;;;;7.95;6.60;;;18.80;46.20;;;;;;5075245;28;20214;-82
2023/04/27 06:16:44;;;;;;;7.20;6.50;;;18.80;46.30;;;;;;5075815;28;20310;-81
2023/04/27 06:19:12;;;;;;;7.95;6.35;;;18.90;46.00;;;;;;5075464;28;20248;-81
2023/04/27 06:21:39;;;;;;;9.27;6.50;;;18.90;46.10;;;;;;5074934;28;20344;-82
2023/04/27 06:24:07;;;;;;;7.32;6.63;;;19.00;46.10;;;;;;5075064;28;20266;-82
2023/04/27 06:26:34;;;;;;;7.72;6.47;;;19.10;46.10;;;;;;5058766;28;20228;-81
2023/04/27 06:29:02;;;;;;;6.75;5.97;;;19.20;45.80;;;;;;5058402;28;20198;-81
2023/04/27 06:31:31;;;;;;;7.93;6.68;;;19.30;45.30;;;;;;5074525;28;20219;-81
2023/04/27 06:33:58;;;;;;;7.43;6.68;;;19.30;45.30;;;;;;5075282;28;20210;-81
2023/04/27 06:36:25;;;;;;;7.22;6.53;;;19.40;45.30;;;;;;5075654;28;20194;-79
2023/04/27 06:38:55;;;;;;;8.02;6.57;;;19.50;45.30;;;;;;5075482;28;20211;-85
2023/04/27 06:41:22;;;;;;;6.65;5.97;;;19.60;45.00;;;;;;5075498;28;20222;-86
2023/04/27 06:43:49;;;;;;;7.82;6.32;;;19.60;45.00;;;;;;5074451;28;20258;-85
2023/04/27 06:46:16;;;;;;;7.22;6.53;;;19.70;44.80;;;;;;5074408;28;20194;-85
2023/04/27 06:48:45;;;;;;;7.68;6.88;;;19.70;45.20;;;;;;5074660;28;20199;-84
2023/04/27 06:51:12;;;;;;;8.65;6.40;;;19.80;45.10;;;;;;5074231;28;20230;-85
2023/04/27 06:53:38;;;;;;;8.55;6.32;;;19.90;45.10;;;;;;5074605;28;20227;-85
2023/04/27 06:56:06;;;;;;;7.88;6.25;;;19.90;45.00;;;;;;5074471;28;20210;-84
2023/04/27 06:58:33;;;;;;;7.65;5.90;;;20.00;44.80;;;;;;5075299;28;20559;-84
2023/04/27 07:01:01;;;;;;;6.38;5.53;;;20.20;44.80;;;;;;5073716;28;20218;-85
2023/04/27 07:03:28;;;;;;;6.85;6.10;;;20.30;44.90;;;;;;5073630;28;20248;-85
2023/04/27 07:05:58;;;;;;;7.93;6.20;;;20.40;44.90;;;;;;5073607;28;20683;-85
2023/04/27 07:08:25;;;;;;;7.60;5.93;;;20.50;44.70;;;;;;5074617;28;20190;-85
2023/04/27 07:10:52;;;;;;;6.72;5.60;;;20.60;44.60;;;;;;5073554;28;20598;-85
2023/04/27 07:13:19;;;;;;;7.20;5.70;;;20.70;44.50;;;;;;5073723;28;20225;-86
2023/04/27 07:15:46;;;;;;;6.68;5.97;;;20.80;44.20;;;;;;5073578;28;20218;-85
2023/04/27 07:18:13;;;;;;;6.07;5.40;;;20.90;44.10;;;;;;5073149;28;20661;-85
2023/04/27 07:20:41;;;;;;;6.55;5.55;;;20.90;44.10;;;;;;5073395;28;20246;-85
2023/04/27 07:23:09;;;;;;;7.00;5.78;;;21.10;44.20;;;;;;5075305;28;20197;-85
2023/04/27 07:25:36;;;;;;;6.55;5.65;;;21.20;44.00;;;;;;5074944;28;20676;-85
2023/04/27 07:28:03;;;;;;;5.63;5.05;;;21.30;43.90;;;;;;5074193;28;20214;-86
2023/04/27 07:30:33;;;;;;;5.97;5.28;;;21.40;43.60;;;;;;5073820;28;20214;-85
2023/04/27 07:33:01;;;;;;;8.20;6.05;;;21.60;43.40;;;;;;5073849;28;20581;-87
2023/04/27 07:35:28;;;;;;;6.63;5.40;;;21.80;43.10;;;;;;5056664;28;20229;-85
2023/04/27 07:37:56;;;;;;;6.90;5.07;;;21.90;42.80;;;;;;5074867;28;20202;-85
2023/04/27 07:40:25;;;;;;;6.70;5.05;;;22.10;43.10;;;;;;5074634;28;20271;-84
2023/04/27 07:42:52;;;;;;;7.38;5.07;;;22.20;43.00;;;;;;5074943;28;20626;-82
2023/04/27 07:45:19;;;;;;;5.35;4.85;;;22.40;43.20;;;;;;5074750;28;20285;-82
2023/04/27 07:47:46;;;;;;;7.13;4.95;;;22.50;43.20;;;;;;5075401;28;20225;-82
2023/04/27 07:50:15;;;;;;;5.70;4.47;;;22.50;43.00;;;;;;5076948;28;20228;-84
2023/04/27 07:52:42;;;;;;;5.53;4.90;;;22.60;42.80;;;;;;5076219;28;20262;-84
2023/04/27 07:55:09;;;;;;;5.72;4.97;;;22.60;42.60;;;;;;5079976;28;20214;-86
2023/04/27 07:57:44;;;;;;;6.10;5.50;;;22.80;42.40;;;;;;5076032;28;20292;-83
2023/04/27 08:00:12;;;;;;;5.82;5.07;;;22.80;42.10;;;;;;5075547;28;20213;-83
2023/04/27 08:02:42;;;;;;;5.97;5.18;;;22.90;41.80;;;;;;5075940;28;20617;-83
2023/04/27 08:05:09;;;;;;;8.80;5.85;;;23.00;41.60;;;;;;5075689;28;20201;-83
2023/04/27 08:07:37;;;;;;;5.65;5.00;;;23.10;41.50;;;;;;5075340;28;20293;-83
2023/04/27 08:10:06;;;;;;;5.75;5.10;;;23.10;41.30;;;;;;5040761;28;20211;-83
2023/04/27 08:12:33;;;;;;;7.68;5.63;;;23.20;41.10;;;;;;5075268;28;20199;-82
2023/04/27 08:15:02;;;;;;;8.43;6.28;;;23.20;40.90;;;;;;5086589;28;20224;-82
2023/04/27 08:17:29;;;;;;;7.15;5.97;;;23.30;40.80;;;;;;5089843;28;20198;-81
2023/04/27 08:19:56;;;;;;;8.25;5.22;;;23.40;40.80;;;;;;5086279;28;20203;-77
2023/04/27 08:22:23;;;;;;;8.15;6.35;;;23.40;40.70;;;;;;5076538;28;20683;-77
2023/04/27 08:24:50;;;;;;;8.63;5.80;;;23.40;40.70;;;;;;5076605;28;20198;-77
2023/04/27 08:27:17;;;;;;;7.13;5.90;;;23.40;40.50;;;;;;5076280;28;20240;-77
2023/04/27 08:29:47;;;;;;;7.28;5.80;;;23.50;40.50;;;;;;5076378;28;20683;-78
2023/04/27 08:32:15;;;;;;;7.47;5.38;;;23.50;40.40;;;;;;5077275;28;20225;-82
2023/04/27 08:34:43;;;;;;;6.55;5.28;;;23.50;40.30;;;;;;5076836;28;20222;-81
2023/04/27 08:37:10;;;;;;;7.50;5.75;;;23.60;40.10;;;;;;5076524;28;20316;-82
2023/04/27 08:39:37;;;;;;;6.20;5.32;;;23.60;39.90;;;;;;5077897;28;20206;-82
2023/04/27 08:42:10;;;;;;;6.25;5.43;;;23.70;39.80;;;;;;5079175;28;20222;-83
2023/04/27 08:44:39;;;;;;;8.27;5.75;;;23.80;39.80;;;;;;5078617;28;20707;-83
2023/04/27 08:47:05;;;;;;;6.63;5.40;;;23.80;39.70;;;;;;5078616;28;20653;-83
2023/04/27 08:49:34;;;;;;;7.10;5.10;;;23.90;39.60;;;;;;5062148;28;20238;-82
2023/04/27 08:52:01;;;;;;;6.72;4.95;;;24.00;39.50;;;;;;5078601;28;20268;-82
2023/04/27 08:54:29;;;;;;;6.30;5.00;;;24.00;39.40;;;;;;5078055;28;20222;-82
2023/04/27 08:56:56;;;;;;;6.45;5.25;;;24.00;39.40;;;;;;5078572;28;20205;-82
2023/04/27 08:59:23;;;;;;;6.50;5.13;;;24.10;39.20;;;;;;5078980;28;20256;-83
2023/04/27 09:01:50;;;;;;;6.13;5.20;;;24.10;39.00;;;;;;5077144;28;20276;-79
2023/04/27 09:04:18;;;;;;;8.45;5.80;;;24.20;38.90;;;;;;5078696;28;20244;-84
2023/04/27 09:06:48;;;;;;;5.97;5.38;;;24.20;38.80;;;;;;5079327;28;20194;-84
2023/04/27 09:09:23;;;;;;;6.82;5.15;;;24.30;38.70;;;;;;5077113;28;20645;-85
2023/04/27 09:11:50;;;;;;;5.00;4.50;;;24.30;38.60;;;;;;5076216;28;20250;-84
2023/04/27 09:14:17;;;;;;;6.53;5.00;;;24.30;38.60;;;;;;5076888;28;20746;-83
2023/04/27 09:16:45;;;;;;;6.72;4.90;;;24.30;38.50;;;;;;5078089;28;20190;-84
2023/04/27 09:19:23;;;;;;;6.63;5.15;;;24.30;38.50;;;;;;5077723;28;20245;-85
2023/04/27 09:21:52;;;;;;;6.65;5.10;;;24.30;38.40;;;;;;5061549;28;20223;-85
2023/04/27 09:24:19;;;;;;;6.40;5.30;;;24.30;38.60;;;;;;5074928;28;20665;-85
2023/04/27 09:26:49;;;;;;;6.30;5.25;;;24.20;38.60;;;;;;5076815;28;20553;-85
2023/04/27 09:29:16;;;;;;;8.10;5.20;;;24.20;38.60;;;;;;5060860;28;20210;-84
2023/04/27 09:31:43;;;;;;;6.40;5.30;;;24.20;38.60;;;;;;5076976;28;20225;-84
2023/04/27 09:34:10;;;;;;;7.97;5.18;;;24.20;38.70;;;;;;5076700;28;20215;-84
2023/04/27 09:36:37;;;;;;;8.25;5.85;;;24.20;38.80;;;;;;5076959;28;20199;-85
2023/04/27 09:39:05;;;;;;;8.90;5.75;;;24.20;38.80;;;;;;5076631;28;20202;-84
2023/04/27 09:41:32;;;;;;;7.88;5.53;;;24.20;38.80;;;;;;5076394;28;20218;-84
2023/04/27 09:43:59;;;;;;;9.63;5.70;;;24.20;38.80;;;;;;5076459;28;20614;-84
2023/04/27 09:46:26;;;;;;;9.07;5.40;;;24.20;39.00;;;;;;5076385;28;20198;-84
2023/04/27 09:48:53;;;;;;;7.18;5.22;;;24.10;39.00;;;;;;5076429;28;20688;-84
2023/04/27 09:51:20;;;;;;;5.88;5.18;;;24.20;39.20;;;;;;5078248;28;20564;-84
2023/04/27 09:53:50;;;;;;;7.60;5.18;;;24.00;39.20;;;;;;5076308;28;20244;-84
2023/04/27 09:56:27;;;;;;;8.02;5.30;;;24.00;39.10;;;;;;5076489;28;20199;-84
2023/04/27 09:59:10;;;;;;;6.07;4.97;;;24.00;39.30;;;;;;5075056;28;20241;-84
2023/04/27 10:01:40;;;;;;;7.75;5.38;;;24.00;39.20;;;;;;5075415;28;20700;-84
2023/04/27 10:04:15;;;;;;;7.57;5.00;;;24.00;39.40;;;;;;5074896;28;20233;-84
2023/04/27 10:06:57;;;;;;;6.35;4.80;;;24.00;39.90;;;;;;5076013;28;20190;-84
2023/04/27 10:09:24;;;;;;;7.85;4.68;;;24.00;40.30;;;;;;5076915;28;20713;-84
2023/04/27 10:11:53;;;;;;;6.40;4.93;;;24.00;40.60;;;;;;5075684;28;20681;-84
2023/04/27 10:14:21;;;;;;;6.50;4.63;;;24.00;40.60;;;;;;5075205;28;20650;-84
2023/04/27 10:16:53;;;;;;;4.95;4.40;;;24.00;40.80;;;;;;5076881;28;20252;-84
2023/04/27 10:19:20;;;;;;;6.95;4.85;;;24.00;40.70;;;;;;5075894;28;20273;-84
2023/04/27 10:21:55;;;;;;;5.00;4.43;;;24.00;40.80;;;;;;5074934;28;20219;-84
2023/04/27 10:24:32;;;;;;;5.90;4.85;;;24.00;40.60;;;;;;5075540;28;20194;-84
2023/04/27 10:27:04;;;;;;;5.75;4.68;;;24.00;40.60;;;;;;5075910;28;20222;-84
2023/04/27 10:29:38;;;;;;;5.95;4.28;;;24.00;40.50;;;;;;5075133;28;20298;-84
2023/04/27 10:32:13;;;;;;;6.65;4.97;;;24.00;40.50;;;;;;5074556;28;20312;-85
2023/04/27 10:34:41;;;;;;;4.95;4.22;;;24.00;40.50;;;;;;5057129;28;20210;-85
2023/04/27 10:37:09;;;;;;;5.20;3.97;;;24.00;40.50;;;;;;5058295;28;20199;-85
2023/04/27 10:39:37;;;;;;;7.32;4.60;;;23.90;40.50;;;;;;5074880;28;20248;-85
2023/04/27 10:42:06;;;;;;;5.50;4.55;;;23.90;40.70;;;;;;5074332;28;20246;-85
2023/04/27 10:44:34;;;;;;;7.03;4.35;;;23.90;40.60;;;;;;5074472;28;20655;-84
2023/04/27 10:47:02;;;;;;;5.32;4.43;;;23.90;40.70;;;;;;5058209;28;20221;-84
2023/04/27 10:49:30;;;;;;;5.18;4.22;;;23.90;40.70;;;;;;5074566;28;20195;-84
2023/04/27 10:51:57;;;;;;;5.82;4.20;;;23.80;40.70;;;;;;5074757;28;20569;-84
2023/04/27 10:54:26;;;;;;;7.03;4.60;;;23.80;40.70;;;;;;5074326;28;20567;-85
2023/04/27 10:56:53;;;;;;;5.72;4.50;;;23.80;40.70;;;;;;5074604;28;20201;-85
2023/04/27 10:59:22;;;;;;;4.72;4.00;;;23.80;40.70;;;;;;5074703;28;20244;-85
2023/04/27 11:01:50;;;;;;;4.78;4.28;;;23.80;40.70;;;;;;5075702;28;20222;-85
2023/04/27 11:04:18;;;;;;;5.13;4.22;;;23.80;40.60;;;;;;5075551;28;20191;-85
2023/04/27 11:06:45;;;;;;;4.97;4.22;;;23.70;40.50;;;;;;5074890;28;20676;-85
2023/04/27 11:09:13;;;;;;;5.85;4.40;;;23.80;40.60;;;;;;5075572;28;20209;-85
2023/04/27 11:11:44;;;;;;;4.60;4.10;;;23.70;40.50;;;;;;5075343;28;20607;-85
2023/04/27 11:14:15;;;;;;;5.63;4.00;;;23.70;41.00;;;;;;5075049;28;20191;-85
2023/04/27 11:16:48;;;;;;;5.65;3.67;;;23.70;40.50;;;;;;5075202;28;20194;-84
2023/04/27 11:19:15;;;;;;;4.75;3.97;;;23.70;40.50;;;;;;5075140;28;20195;-85
2023/04/27 11:21:43;;;;;;;6.00;4.43;;;23.70;40.50;;;;;;5074906;28;20218;-85
2023/04/27 11:24:11;;;;;;;4.78;4.30;;;23.70;40.50;;;;;;5059175;28;20620;-85
2023/04/27 11:26:38;;;;;;;4.10;3.70;;;23.60;40.50;;;;;;5077041;28;20214;-85
2023/04/27 11:29:08;;;;;;;4.15;3.75;;;23.60;40.50;;;;;;5075226;28;20669;-85
2023/04/27 11:31:40;;;;;;;4.25;3.85;;;23.60;40.50;;;;;;5074273;28;20722;-85
2023/04/27 11:34:09;;;;;;;4.68;3.60;;;23.60;40.50;;;;;;5074945;28;20649;-85
2023/04/27 11:36:36;;;;;;;4.45;3.90;;;23.60;40.60;;;;;;5074879;28;20202;-85
2023/04/27 11:39:06;;;;;;;5.85;3.58;;;23.60;40.50;;;;;;5073871;28;20183;-85
2023/04/27 11:41:33;;;;;;;4.88;4.03;;;23.60;40.60;;;;;;5058025;28;20211;-85
2023/04/27 11:44:04;;;;;;;4.50;3.88;;;23.60;40.60;;;;;;5058069;28;20201;-85
2023/04/27 11:46:32;;;;;;;4.57;3.92;;;23.50;40.60;;;;;;5074427;28;20198;-85
2023/04/27 11:49:02;;;;;;;4.25;3.72;;;23.50;40.60;;;;;;5073892;28;20240;-85
2023/04/27 11:51:31;;;;;;;4.13;3.78;;;23.50;40.70;;;;;;5073975;28;20234;-85
2023/04/27 11:54:02;;;;;;;4.40;4.00;;;23.50;40.60;;;;;;5073058;28;20198;-85
2023/04/27 11:56:35;;;;;;;4.55;4.00;;;23.50;40.70;;;;;;5072888;28;20666;-85
2023/04/27 11:59:02;;;;;;;4.10;3.70;;;23.40;40.70;;;;;;5072761;28;20532;-85
2023/04/27 12:01:29;;;;;;;3.97;3.58;;;23.50;40.70;;;;;;5073227;28;20584;-85
2023/04/27 12:03:56;;;;;;;4.22;3.83;;;23.40;40.70;;;;;;5072959;28;20202;-85
2023/04/27 12:06:25;;;;;;;4.07;3.67;;;23.30;40.70;;;;;;5072847;28;20201;-85
2023/04/27 12:08:53;;;;;;;4.20;3.67;;;23.40;40.80;;;;;;5073049;28;20194;-85
2023/04/27 12:11:21;;;;;;;4.75;4.10;;;23.40;40.80;;;;;;5073128;28;20587;-85
2023/04/27 12:13:47;;;;;;;4.07;3.63;;;23.30;40.80;;;;;;5073542;28;20195;-85
2023/04/27 12:16:15;;;;;;;4.15;3.75;;;23.30;40.80;;;;;;5073160;28;20601;-85
2023/04/27 12:18:42;;;;;;;4.30;3.70;;;23.30;40.80;;;;;;5072956;28;20206;-84
2023/04/27 12:21:10;;;;;;;5.20;3.70;;;23.30;40.50;;;;;;5074631;28;20225;-83
2023/04/27 12:23:37;;;;;;;4.75;3.85;;;23.30;40.80;;;;;;5074193;28;20198;-84
2023/04/27 12:26:06;;;;;;;4.30;3.90;;;23.30;41.10;;;;;;5073693;28;20248;-84
2023/04/27 12:28:33;;;;;;;4.40;3.67;;;23.20;41.00;;;;;;5073682;28;20614;-84
2023/04/27 12:31:02;;;;;;;3.88;3.55;;;23.20;41.10;;;;;;5073458;28;20214;-83
2023/04/27 12:33:29;;;;;;;4.05;3.65;;;23.20;40.80;;;;;;5057532;28;20187;-84
2023/04/27 12:35:56;;;;;;;4.15;3.40;;;23.20;40.40;;;;;;5056054;28;20228;-84
2023/04/27 12:38:23;;;;;;;10.80;4.20;;;23.20;39.10;;;;;;5073057;28;20191;-84
2023/04/27 12:40:50;;;;;;;8.30;3.78;;;23.10;39.60;;;;;;5072693;28;20225;-84
2023/04/27 12:43:19;;;;;;;6.20;3.60;;;23.10;39.70;;;;;;5073164;28;20199;-84
2023/04/27 12:45:46;;;;;;;4.95;3.30;;;23.10;39.20;;;;;;5072653;28;20190;-83